Time;durP1;ratioP1;P1;durP2;ratioP2;P2;SDS_P1;SDS_P2;PMS_P1;PMS_P2;Temp;Humidity;BMP_temperature;BMP_pressure;BME280_temperature;BME280_humidity;BME280_pressure;Samples;Min_cycle;Max_cycle;Signal;HPM_P1;HPM_P2
2023/06/20 00:01:34;;;;;;;;;3.50;2.50;;;;;22.25;54.31;100550.56;5036332;28;47785;-66
2023/06/20 00:03:59;;;;;;;;;3.00;2.75;;;;;22.24;53.91;100554.19;5020993;28;45463;-66
2023/06/20 00:06:25;;;;;;;;;4.75;2.00;;;;;22.24;54.36;100549.69;5020741;28;47232;-66
2023/06/20 00:08:50;;;;;;;;;4.00;2.25;;;;;22.21;54.56;100549.91;5020465;28;45198;-66
2023/06/20 00:11:16;;;;;;;;;3.25;2.00;;;;;22.22;54.43;100550.75;5020989;28;45161;-66
2023/06/20 00:13:42;;;;;;;;;2.00;2.00;;;;;22.17;54.64;100551.03;5021115;28;45230;-66
2023/06/20 00:16:11;;;;;;;;;3.75;1.00;;;;;22.17;54.41;100540.34;5020539;28;46018;-66
2023/06/20 00:18:36;;;;;;;;;1.00;1.00;;;;;22.15;54.22;100536.94;5020774;28;45454;-67
2023/06/20 00:21:01;;;;;;;;;2.75;2.00;;;;;22.15;54.84;100536.06;5020605;28;45329;-66
2023/06/20 00:23:29;;;;;;;;;4.00;3.00;;;;;22.13;54.28;100532.63;5020808;28;45581;-66
2023/06/20 00:25:55;;;;;;;;;2.00;2.00;;;;;22.10;54.44;100532.81;5020551;28;47010;-67
2023/06/20 00:28:20;;;;;;;;;2.00;2.00;;;;;22.08;54.47;100540.97;5020595;28;45249;-66
2023/06/20 00:30:45;;;;;;;;;3.00;3.00;;;;;22.07;54.85;100539.25;5020677;28;45233;-66
2023/06/20 00:33:11;;;;;;;;;2.00;2.00;;;;;22.06;54.61;100542.88;5020518;28;45601;-66
2023/06/20 00:35:37;;;;;;;;;2.00;2.00;;;;;22.03;54.57;100533.22;5020334;28;46252;-66
2023/06/20 00:38:02;;;;;;;;;3.75;2.75;;;;;22.02;55.08;100531.50;5020352;28;45439;-67
2023/06/20 00:40:27;;;;;;;;;4.75;3.00;;;;;22.01;54.46;100535.16;5020553;28;45391;-66
2023/06/20 00:42:53;;;;;;;;;4.00;2.00;;;;;21.99;54.85;100536.22;5020666;28;45257;-66
2023/06/20 00:45:27;;;;;;;;;4.50;3.25;;;;;21.99;54.87;100541.56;5018892;28;48070;-67
2023/06/20 00:47:52;;;;;;;;;3.00;3.00;;;;;21.96;54.91;100539.09;5020263;28;45320;-67
2023/06/20 00:50:18;;;;;;;;;3.75;3.50;;;;;21.91;54.80;100534.91;5020354;28;45217;-66
2023/06/20 00:52:44;;;;;;;;;3.75;2.25;;;;;21.91;54.70;100534.91;5020193;28;45154;-66
2023/06/20 00:55:10;;;;;;;;;2.75;2.75;;;;;21.91;55.20;100528.69;5020022;28;46157;-66
2023/06/20 00:57:37;;;;;;;;;2.00;1.75;;;;;21.90;55.25;100529.66;5020120;28;45265;-67
2023/06/20 01:00:06;;;;;;;;;3.00;3.00;;;;;21.88;55.27;100518.19;5020442;28;45266;-66
2023/06/20 01:02:31;;;;;;;;;3.00;3.00;;;;;21.87;55.15;100525.38;5020107;28;45499;-66
2023/06/20 01:04:56;;;;;;;;;4.00;2.00;;;;;21.86;55.48;100523.66;5018481;28;47806;-66
2023/06/20 01:07:42;;;;;;;;;5.25;3.50;;;;;21.83;55.32;100521.16;5019962;28;45227;-66
2023/06/20 01:10:07;;;;;;;;;1.00;1.00;;;;;21.83;55.16;100523.00;5020142;28;45297;-67
2023/06/20 01:12:39;;;;;;;;;6.00;3.50;;;;;21.83;55.33;100536.34;5020109;28;45234;-67
2023/06/20 01:15:19;;;;;;;;;2.75;2.25;;;;;21.82;55.44;100530.13;5019795;28;45992;-66
2023/06/20 01:17:55;;;;;;;;;5.25;3.75;;;;;21.81;55.27;100527.56;5019753;28;45322;-66
2023/06/20 01:20:27;;;;;;;;;4.00;2.25;;;;;21.83;55.47;100531.00;5019215;28;45462;-66
2023/06/20 01:22:56;;;;;;;;;2.75;2.50;;;;;21.81;55.35;100527.56;5019648;28;45233;-67
2023/06/20 01:25:34;;;;;;;;;5.75;2.50;;;;;21.80;55.38;100532.06;5019769;28;46197;-66
2023/06/20 01:28:21;;;;;;;;;2.25;2.25;;;;;21.82;55.51;100529.28;5019965;28;45224;-67
2023/06/20 01:30:59;;;;;;;;;2.00;2.00;;;;;21.81;55.60;100535.59;5019877;28;45356;-67
2023/06/20 01:33:30;;;;;;;;;2.75;2.75;;;;;21.80;55.44;100524.03;5019910;28;45467;-66
2023/06/20 01:35:59;;;;;;;;;4.75;3.00;;;;;21.80;55.30;100517.81;5019290;28;46243;-67
2023/06/20 01:38:27;;;;;;;;;2.75;2.75;;;;;21.79;55.70;100519.66;5019607;28;45411;-66
2023/06/20 01:40:55;;;;;;;;;4.00;2.50;;;;;21.79;55.82;100522.31;5019570;28;45269;-67
2023/06/20 01:43:21;;;;;;;;;2.75;2.75;;;;;21.78;55.89;100520.59;5019587;28;45487;-66
2023/06/20 01:45:48;;;;;;;;;6.50;3.00;;;;;21.77;55.61;100520.72;5019635;28;45932;-67
2023/06/20 01:48:16;;;;;;;;;4.25;3.25;;;;;21.76;55.45;100525.22;5019441;28;45241;-67
2023/06/20 01:50:43;;;;;;;;;3.00;3.00;;;;;21.75;55.58;100529.69;5019650;28;45421;-67
2023/06/20 01:53:11;;;;;;;;;4.25;4.25;;;;;21.73;55.40;100520.88;5019018;28;45491;-66
2023/06/20 01:55:37;;;;;;;;;2.50;2.50;;;;;21.73;55.21;100528.06;5034533;28;46416;-66
2023/06/20 01:58:04;;;;;;;;;5.75;2.25;;;;;21.72;55.32;100537.03;5019294;28;45201;-67
2023/06/20 02:00:31;;;;;;;;;3.00;3.00;;;;;21.70;55.62;100537.16;5019730;28;45289;-67
2023/06/20 02:02:58;;;;;;;;;4.00;3.50;;;;;21.69;55.78;100524.72;5019190;28;45511;-66
2023/06/20 02:05:26;;;;;;;;;5.50;4.50;;;;;21.67;55.91;100517.75;5019448;28;46660;-66
2023/06/20 02:07:55;;;;;;;;;4.50;4.00;;;;;21.64;55.65;100510.81;5018953;28;45175;-66
2023/06/20 02:10:21;;;;;;;;;4.25;4.00;;;;;21.65;55.58;100504.50;5019309;28;45368;-66
2023/06/20 02:12:49;;;;;;;;;4.00;3.25;;;;;21.64;56.06;100499.25;5019149;28;45324;-66
2023/06/20 02:15:16;;;;;;;;;6.00;2.25;;;;;21.65;55.47;100504.50;5018959;28;46065;-66
2023/06/20 02:17:43;;;;;;;;;4.50;3.00;;;;;21.64;56.15;100510.81;5034468;28;46161;-66
2023/06/20 02:20:09;;;;;;;;;3.00;3.00;;;;;21.63;56.26;100505.56;5019339;28;45194;-66
2023/06/20 02:22:36;;;;;;;;;6.00;3.75;;;;;21.64;55.88;100501.94;5018954;28;45296;-66
2023/06/20 02:25:07;;;;;;;;;6.00;5.25;;;;;21.63;56.06;100506.41;5019015;28;45455;-66
2023/06/20 02:27:34;;;;;;;;;4.25;3.00;;;;;21.65;55.54;100509.84;5018911;28;45249;-66
2023/06/20 02:30:03;;;;;;;;;5.00;4.75;;;;;21.62;55.84;100498.50;5019148;28;45347;-66
2023/06/20 02:32:29;;;;;;;;;4.25;3.25;;;;;21.64;56.04;100492.09;5022180;28;45415;-66
2023/06/20 02:34:56;;;;;;;;;8.75;5.75;;;;;21.59;56.31;100481.69;5022271;28;45241;-66
2023/06/20 02:37:24;;;;;;;;;6.25;3.25;;;;;21.62;55.74;100480.63;5022120;28;45345;-66
2023/06/20 02:39:50;;;;;;;;;3.00;2.00;;;;;21.63;55.90;100484.16;5022356;28;45450;-66
2023/06/20 02:42:16;;;;;;;;;5.00;4.00;;;;;21.62;55.74;100490.47;5022114;28;45407;-66
2023/06/20 02:44:42;;;;;;;;;6.00;5.00;;;;;21.61;55.84;100494.09;5022314;28;46404;-66
2023/06/20 02:47:15;;;;;;;;;7.25;4.00;;;;;21.62;56.14;100490.47;5022084;28;45397;-66
2023/06/20 02:49:56;;;;;;;;;3.50;3.50;;;;;21.59;56.03;100494.19;5022420;28;45348;-66
2023/06/20 02:52:40;;;;;;;;;5.50;4.25;;;;;21.61;56.11;100492.28;5037265;28;45392;-66
2023/06/20 02:55:44;;;;;;;;;3.75;3.00;;;;;21.60;56.04;100498.59;5021902;28;45195;-66
2023/06/20 02:58:15;;;;;;;;;7.75;5.00;;;;;21.60;56.01;100490.56;5022031;28;45517;-66
2023/06/20 03:00:44;;;;;;;;;4.50;3.00;;;;;21.60;56.26;100490.56;5022222;28;45359;-67
2023/06/20 03:03:13;;;;;;;;;5.00;3.25;;;;;21.60;55.92;100485.22;5036970;28;45811;-67
2023/06/20 03:05:43;;;;;;;;;3.75;3.75;;;;;21.61;56.36;100484.28;5021589;28;46083;-66
2023/06/20 03:08:09;;;;;;;;;7.25;5.00;;;;;21.61;56.22;100489.63;5021857;28;45339;-66
2023/06/20 03:10:36;;;;;;;;;5.00;4.25;;;;;21.60;55.85;100487.91;5021942;28;45287;-67
2023/06/20 03:13:03;;;;;;;;;3.50;3.50;;;;;21.62;56.23;100483.28;5020494;28;45572;-66
2023/06/20 03:15:28;;;;;;;;;7.50;5.00;;;;;21.59;56.06;100476.34;5021386;28;45276;-66
2023/06/20 03:17:54;;;;;;;;;8.00;4.00;;;;;21.61;56.21;100475.38;5021598;28;45312;-67
2023/06/20 03:20:20;;;;;;;;;4.25;3.50;;;;;21.62;56.15;100475.28;5022079;28;45605;-66
2023/06/20 03:22:45;;;;;;;;;6.50;4.00;;;;;21.58;56.32;100471.97;5021375;28;45285;-66
2023/06/20 03:25:10;;;;;;;;;6.75;5.00;;;;;21.59;55.90;100470.97;5021629;28;46431;-66
2023/06/20 03:27:35;;;;;;;;;6.00;6.00;;;;;21.59;56.21;100470.97;5021577;28;45261;-66
2023/06/20 03:30:03;;;;;;;;;4.00;2.00;;;;;21.58;56.43;100466.63;5021752;28;47852;-66
2023/06/20 03:32:29;;;;;;;;;5.00;4.00;;;;;21.58;56.30;100465.75;5021551;28;45503;-66
2023/06/20 03:34:54;;;;;;;;;4.75;4.75;;;;;21.57;56.44;100464.91;5021489;28;46517;-66
2023/06/20 03:37:20;;;;;;;;;6.75;4.50;;;;;21.58;55.99;100463.06;5021131;28;45174;-66
2023/06/20 03:39:45;;;;;;;;;4.25;4.00;;;;;21.57;56.82;100456.88;5021610;28;45169;-66
2023/06/20 03:42:10;;;;;;;;;5.50;5.50;;;;;21.56;56.11;100465.84;5020254;28;46152;-66
2023/06/20 03:44:36;;;;;;;;;4.25;3.75;;;;;21.57;56.36;100466.69;5021546;28;45345;-66
2023/06/20 03:47:01;;;;;;;;;7.50;6.25;;;;;21.57;56.39;100464.03;5021209;28;45245;-66
2023/06/20 03:49:26;;;;;;;;;5.50;5.00;;;;;21.56;56.50;100471.19;5021649;28;45202;-66
2023/06/20 03:51:52;;;;;;;;;8.00;7.00;;;;;21.55;56.58;100466.81;5021167;28;45507;-66
2023/06/20 03:54:17;;;;;;;;;5.50;5.25;;;;;21.54;56.62;100472.22;5021340;28;46556;-66
2023/06/20 03:56:42;;;;;;;;;6.00;5.00;;;;;21.54;56.07;100470.41;5020827;28;45290;-66
2023/06/20 03:59:07;;;;;;;;;4.00;4.00;;;;;21.54;56.22;100462.38;5020082;28;45246;-66
2023/06/20 04:01:33;;;;;;;;;4.50;4.50;;;;;21.54;56.25;100464.19;5021086;28;45481;-66
2023/06/20 04:03:58;;;;;;;;;4.25;3.25;;;;;21.53;56.23;100459.81;5020995;28;46444;-66
2023/06/20 04:06:30;;;;;;;;;6.00;6.00;;;;;21.52;56.22;100466.97;5020372;28;57253;-66
2023/06/20 04:08:55;;;;;;;;;5.75;4.75;;;;;21.53;56.16;100462.47;5021194;28;45209;-66
2023/06/20 04:11:21;;;;;;;;;7.00;6.00;;;;;21.52;56.86;100476.78;5019556;28;45174;-66
2023/06/20 04:13:46;;;;;;;;;6.75;6.25;;;;;21.52;56.45;100474.13;5020886;28;46139;-66
2023/06/20 04:16:11;;;;;;;;;4.75;4.75;;;;;21.51;57.00;100472.41;5020682;28;45384;-72
2023/06/20 04:18:36;;;;;;;;;7.00;7.00;;;;;21.50;56.26;100476.91;5021098;28;45161;-61
2023/06/20 04:21:02;;;;;;;;;9.25;6.50;;;;;21.51;56.77;100483.09;5020415;28;51252;-61
2023/06/20 04:23:27;;;;;;;;;6.75;6.75;;;;;21.52;56.92;100477.69;5020754;28;45235;-61
2023/06/20 04:25:52;;;;;;;;;6.00;6.00;;;;;21.53;56.31;100473.19;5020651;28;45182;-61
2023/06/20 04:28:18;;;;;;;;;6.50;5.00;;;;;21.53;56.61;100473.19;5020922;28;45267;-61
2023/06/20 04:30:43;;;;;;;;;6.75;6.25;;;;;21.54;56.25;100472.22;5020669;28;45167;-61
2023/06/20 04:33:08;;;;;;;;;7.50;5.00;;;;;21.54;56.61;100473.06;5020584;28;45341;-61
2023/06/20 04:35:34;;;;;;;;;5.00;5.00;;;;;21.56;56.73;100468.53;5019836;28;56210;-61
2023/06/20 04:38:01;;;;;;;;;6.50;6.50;;;;;21.57;56.58;100477.38;5020660;28;45469;-61
2023/06/20 04:40:27;;;;;;;;;6.75;5.50;;;;;21.54;56.90;100472.22;5019077;28;45663;-61
2023/06/20 04:42:52;;;;;;;;;10.00;7.50;;;;;21.56;56.98;100471.19;5020315;28;45616;-61
2023/06/20 04:45:17;;;;;;;;;6.75;4.50;;;;;21.59;56.73;100470.13;5019069;28;45406;-61
2023/06/20 04:47:43;;;;;;;;;6.50;6.00;;;;;21.60;56.92;100471.84;5020338;28;46412;-61
2023/06/20 04:50:09;;;;;;;;;6.00;6.00;;;;;21.61;56.86;100467.34;5020342;28;45622;-61
2023/06/20 04:52:34;;;;;;;;;8.50;6.00;;;;;21.61;56.87;100460.22;5035484;28;47456;-61
2023/06/20 04:55:02;;;;;;;;;14.50;10.75;;;;;21.63;57.00;100460.94;5019803;28;45245;-61
2023/06/20 04:57:31;;;;;;;;;4.00;4.00;;;;;21.65;56.97;100459.03;5020300;28;45231;-61
2023/06/20 04:59:57;;;;;;;;;8.50;7.00;;;;;21.67;56.62;100459.81;5020042;28;45473;-61
2023/06/20 05:02:23;;;;;;;;;6.25;5.50;;;;;21.61;56.91;100438.81;5019898;28;47012;-59
2023/06/20 05:04:49;;;;;;;;;5.50;5.50;;;;;21.70;57.10;100448.91;5020017;28;45280;-58
2023/06/20 05:07:14;;;;;;;;;5.00;4.25;;;;;21.69;56.84;100446.34;5020126;28;45224;-59
2023/06/20 05:09:40;;;;;;;;;7.00;5.75;;;;;21.70;57.03;100453.41;5020239;28;45483;-58
2023/06/20 05:12:06;;;;;;;;;6.25;6.25;;;;;21.72;56.50;100456.81;5019999;28;45218;-58
2023/06/20 05:14:31;;;;;;;;;12.50;6.25;;;;;21.72;56.53;100462.16;5019872;28;45278;-58
2023/06/20 05:16:56;;;;;;;;;6.00;6.00;;;;;21.72;56.93;100465.72;5020008;28;45387;-58
2023/06/20 05:19:22;;;;;;;;;6.25;4.25;;;;;21.72;56.77;100464.84;5019928;28;45166;-58
2023/06/20 05:21:47;;;;;;;;;6.25;5.50;;;;;21.72;56.70;100463.03;5019918;28;45977;-58
2023/06/20 05:24:13;;;;;;;;;5.75;4.25;;;;;21.74;57.16;100460.25;5019785;28;45184;-58
2023/06/20 05:26:39;;;;;;;;;8.75;6.75;;;;;21.73;56.61;100455.88;5019881;28;45241;-58
2023/06/20 05:29:04;;;;;;;;;6.75;6.25;;;;;21.73;56.97;100461.22;5019801;28;45432;-59
2023/06/20 05:31:30;;;;;;;;;10.00;7.00;;;;;21.72;56.82;100457.69;5018440;28;47503;-58
2023/06/20 05:33:55;;;;;;;;;9.00;6.75;;;;;21.73;57.22;100456.72;5017889;28;45437;-58
2023/06/20 05:36:20;;;;;;;;;9.75;8.00;;;;;21.72;57.10;100449.69;5029860;28;45373;-58
2023/06/20 05:38:48;;;;;;;;;9.50;8.00;;;;;21.75;57.30;100449.47;5023163;28;45648;-58
2023/06/20 05:41:16;;;;;;;;;9.00;8.00;;;;;21.73;56.82;100443.34;5019477;28;47130;-58
2023/06/20 05:43:42;;;;;;;;;10.75;7.00;;;;;21.75;57.21;100444.09;5019408;28;45261;-58
2023/06/20 05:46:07;;;;;;;;;12.00;9.50;;;;;21.74;57.23;100438.88;5018296;28;45522;-58
2023/06/20 05:48:34;;;;;;;;;6.25;6.25;;;;;21.74;56.92;100434.38;5019473;28;45355;-58
2023/06/20 05:51:00;;;;;;;;;9.25;7.75;;;;;21.70;57.01;100430.19;5019276;28;46122;-58
2023/06/20 05:53:26;;;;;;;;;7.00;6.00;;;;;21.74;57.05;100434.38;5019422;28;45418;-58
2023/06/20 05:55:51;;;;;;;;;9.00;9.00;;;;;21.76;56.87;100442.31;5019612;28;45321;-59
2023/06/20 05:58:18;;;;;;;;;13.50;7.25;;;;;21.78;56.80;100442.19;5019244;28;45507;-58
2023/06/20 06:00:44;;;;;;;;;11.00;7.00;;;;;21.78;57.08;100445.72;5019380;28;46172;-59
2023/06/20 06:03:09;;;;;;;;;10.75;9.00;;;;;21.80;57.22;100449.16;5019218;28;45320;-59
2023/06/20 06:05:35;;;;;;;;;10.75;10.50;;;;;21.81;56.74;100452.69;5019660;28;45249;-58
2023/06/20 06:08:00;;;;;;;;;11.00;7.00;;;;;21.82;57.32;100441.03;5022673;28;45564;-57
2023/06/20 06:10:25;;;;;;;;;7.00;5.00;;;;;21.84;57.08;100447.16;5017915;28;46946;-59
2023/06/20 06:12:51;;;;;;;;;9.25;7.00;;;;;21.85;57.46;100435.50;5020496;28;53271;-58
2023/06/20 06:15:16;;;;;;;;;7.50;7.00;;;;;21.88;57.07;100444.16;5018282;28;45531;-59
2023/06/20 06:17:43;;;;;;;;;8.50;7.00;;;;;21.91;57.03;100435.94;5018165;28;45467;-60
2023/06/20 06:20:12;;;;;;;;;12.75;8.50;;;;;21.95;57.44;100443.75;5021179;28;46340;-59
2023/06/20 06:22:38;;;;;;;;;8.75;8.75;;;;;22.00;57.58;100444.28;5009613;28;45424;-58
2023/06/20 06:25:07;;;;;;;;;9.25;8.00;;;;;22.00;57.32;100433.59;5022069;28;45404;-58
2023/06/20 06:27:34;;;;;;;;;13.50;8.00;;;;;22.02;57.05;100440.53;5012645;28;45469;-74
2023/06/20 06:29:59;;;;;;;;;10.50;9.75;;;;;22.07;57.08;100448.28;5020739;28;46003;-60
2023/06/20 06:32:27;;;;;;;;;15.00;10.00;;;;;22.10;57.28;100447.22;5022504;28;45629;-58
2023/06/20 06:34:53;;;;;;;;;13.00;10.75;;;;;22.13;57.23;100453.22;5022217;28;45344;-65
2023/06/20 06:37:20;;;;;;;;;9.25;9.00;;;;;22.17;57.22;100467.25;5021834;28;45650;-65
2023/06/20 06:39:45;;;;;;;;;12.00;10.50;;;;;22.19;57.33;100465.34;5021767;28;45451;-65
2023/06/20 06:42:11;;;;;;;;;11.00;10.25;;;;;22.23;57.30;100472.19;5020439;28;45282;-65
2023/06/20 06:44:36;;;;;;;;;9.25;9.00;;;;;22.24;57.81;100468.56;5022333;28;45384;-65
2023/06/20 06:47:01;;;;;;;;;9.00;8.75;;;;;22.29;57.35;100469.09;5021963;28;45383;-66
2023/06/20 06:49:27;;;;;;;;;10.50;9.25;;;;;22.33;57.40;100473.28;5020533;28;48130;-66
2023/06/20 06:51:53;;;;;;;;;10.25;10.00;;;;;22.36;57.34;100462.38;5018440;28;45924;-66
2023/06/20 06:54:19;;;;;;;;;9.00;9.00;;;;;22.37;57.24;100465.94;5020987;28;45289;-65
2023/06/20 06:56:45;;;;;;;;;8.25;8.25;;;;;22.43;57.26;100459.28;5020469;28;45529;-65
2023/06/20 06:59:10;;;;;;;;;13.25;12.25;;;;;22.45;57.24;100460.03;5021920;28;45556;-65
2023/06/20 07:01:36;;;;;;;;;12.00;12.00;;;;;22.48;57.36;100462.53;5020867;28;45265;-65
2023/06/20 07:04:01;;;;;;;;;10.25;9.25;;;;;22.51;57.46;100456.94;5022029;28;45356;-66
2023/06/20 07:06:26;;;;;;;;;14.00;11.00;;;;;22.53;57.16;100458.56;5021631;28;46640;-66
2023/06/20 07:08:52;;;;;;;;;11.00;11.00;;;;;22.59;57.61;100451.06;5016891;28;46164;-65
2023/06/20 07:11:18;;;;;;;;;12.75;12.00;;;;;22.63;57.14;100455.22;5020565;28;45320;-66
2023/06/20 07:13:43;;;;;;;;;14.25;12.75;;;;;22.67;57.10;100454.91;5022111;28;45375;-65
2023/06/20 07:16:09;;;;;;;;;12.75;12.50;;;;;22.71;57.04;100463.59;5021684;28;45507;-65
2023/06/20 07:18:34;;;;;;;;;13.25;10.25;;;;;22.76;57.02;100455.25;5021435;28;46208;-66
2023/06/20 07:21:02;;;;;;;;;12.00;10.75;;;;;22.81;57.00;100458.47;5021363;28;45246;-65
2023/06/20 07:23:28;;;;;;;;;14.25;14.00;;;;;22.86;56.89;100459.84;5021828;28;45245;-65
2023/06/20 07:25:53;;;;;;;;;12.00;11.00;;;;;22.90;56.98;100463.16;5021396;28;45422;-65
2023/06/20 07:28:19;;;;;;;;;16.75;13.75;;;;;22.91;57.26;100459.53;5021607;28;46984;-65
2023/06/20 07:30:44;;;;;;;;;15.50;14.00;;;;;22.98;57.25;100478.69;5021473;28;45332;-65
2023/06/20 07:33:09;;;;;;;;;13.50;13.00;;;;;23.02;57.04;100483.72;5021622;28;45300;-65
2023/06/20 07:35:35;;;;;;;;;12.25;10.25;;;;;23.05;57.02;100483.50;5021216;28;45407;-65
2023/06/20 07:38:00;;;;;;;;;14.25;13.25;;;;;23.11;56.93;100490.25;5021228;28;46391;-64
2023/06/20 07:40:25;;;;;;;;;14.00;12.50;;;;;23.13;56.66;100495.50;5021277;28;45381;-65
2023/06/20 07:42:51;;;;;;;;;13.00;12.50;;;;;23.19;56.86;100506.69;5021571;28;45331;-64
2023/06/20 07:45:16;;;;;;;;;12.50;10.75;;;;;23.23;56.81;100499.28;5019880;28;45344;-64
2023/06/20 07:47:41;;;;;;;;;8.50;8.00;;;;;23.26;56.92;100501.75;5021357;28;45458;-65
2023/06/20 07:50:07;;;;;;;;;14.75;13.00;;;;;23.31;56.58;100504.13;5020787;28;53699;-65
2023/06/20 07:52:33;;;;;;;;;15.00;15.00;;;;;23.35;56.60;100505.59;5021076;28;45340;-65
2023/06/20 07:54:58;;;;;;;;;15.00;14.00;;;;;23.36;56.52;100504.63;5020940;28;45225;-64
2023/06/20 07:57:24;;;;;;;;;15.75;14.75;;;;;23.41;56.46;100504.28;5021032;28;45356;-64
2023/06/20 07:59:49;;;;;;;;;18.25;16.00;;;;;23.41;56.47;100502.47;5021018;28;45348;-64
2023/06/20 08:02:14;;;;;;;;;17.75;13.25;;;;;23.45;56.55;100501.28;5032597;28;51379;-64
2023/06/20 08:04:40;;;;;;;;;14.25;14.25;;;;;23.49;56.03;100501.91;5032215;28;45422;-65
2023/06/20 08:07:05;;;;;;;;;19.00;16.25;;;;;23.49;55.82;100505.44;5020539;28;45235;-63
2023/06/20 08:09:31;;;;;;;;;21.00;15.50;;;;;23.51;55.99;100508.03;5021219;28;45227;-64
2023/06/20 08:11:56;;;;;;;;;16.25;15.50;;;;;23.53;55.60;100501.59;5036270;28;45269;-63
2023/06/20 08:14:22;;;;;;;;;13.00;13.00;;;;;23.57;55.78;100512.97;5021104;28;45435;-63
2023/06/20 08:16:47;;;;;;;;;14.75;14.75;;;;;23.61;56.03;100505.53;5020311;28;46268;-64
2023/06/20 08:19:12;;;;;;;;;16.50;13.75;;;;;23.59;55.88;100491.38;5020821;28;45443;-63
2023/06/20 08:21:38;;;;;;;;;12.25;12.00;;;;;23.64;55.82;100483.84;5020537;28;45194;-64
2023/06/20 08:24:04;;;;;;;;;15.50;13.50;;;;;23.70;55.80;100494.13;5020967;28;45221;-65
2023/06/20 08:26:30;;;;;;;;;16.00;15.00;;;;;23.74;55.96;100489.41;5020375;28;46826;-64
2023/06/20 08:28:55;;;;;;;;;14.00;13.00;;;;;23.78;55.69;100489.03;5019974;28;45375;-64
2023/06/20 08:31:20;;;;;;;;;15.75;12.25;;;;;23.82;55.74;100489.69;5020757;28;45359;-64
2023/06/20 08:33:46;;;;;;;;;17.50;17.00;;;;;23.81;55.55;100486.16;5019350;28;45645;-64
2023/06/20 08:36:12;;;;;;;;;16.00;15.00;;;;;23.89;55.42;100484.72;5020269;28;45323;-64
2023/06/20 08:38:38;;;;;;;;;16.25;15.25;;;;;23.91;55.26;100483.69;5020521;28;45307;-64
2023/06/20 08:41:03;;;;;;;;;17.25;14.50;;;;;23.94;55.59;100480.75;5019210;28;45282;-64
2023/06/20 08:43:29;;;;;;;;;15.50;14.50;;;;;23.99;55.34;100483.94;5019748;28;45326;-64
2023/06/20 08:45:55;;;;;;;;;16.25;13.25;;;;;24.04;55.29;100493.47;5019148;28;47038;-64
2023/06/20 08:48:24;;;;;;;;;13.50;12.75;;;;;24.08;55.45;100481.56;5020308;28;45183;-64
2023/06/20 08:50:51;;;;;;;;;15.50;14.75;;;;;24.11;55.36;100473.25;5020276;28;45248;-64
2023/06/20 08:53:18;;;;;;;;;14.75;14.00;;;;;24.15;55.02;100470.22;5020385;28;45328;-64
2023/06/20 08:55:44;;;;;;;;;20.50;15.75;;;;;24.17;55.06;100465.59;5020034;28;46352;-64
2023/06/20 08:58:10;;;;;;;;;15.00;14.00;;;;;24.22;54.99;100459.88;5035430;28;45320;-64
2023/06/20 09:00:37;;;;;;;;;12.00;11.50;;;;;24.27;55.36;100468.44;5020296;28;45500;-64
2023/06/20 09:03:02;;;;;;;;;14.75;14.00;;;;;24.31;55.23;100467.25;5020476;28;45230;-64
2023/06/20 09:05:41;;;;;;;;;13.50;13.50;;;;;24.37;55.01;100462.38;5019638;28;45154;-64
2023/06/20 09:08:06;;;;;;;;;13.00;12.50;;;;;24.42;55.38;100468.25;5020296;28;45357;-64
2023/06/20 09:10:33;;;;;;;;;15.75;15.75;;;;;24.45;55.16;100462.63;5019956;28;45360;-64
2023/06/20 09:12:58;;;;;;;;;14.75;13.00;;;;;24.52;55.09;100469.25;5020139;28;45313;-64
2023/06/20 09:15:27;;;;;;;;;17.25;15.50;;;;;24.57;55.41;100463.53;5019437;28;45321;-64
2023/06/20 09:17:55;;;;;;;;;18.00;15.75;;;;;24.62;54.83;100470.22;5020017;28;45246;-64
2023/06/20 09:20:25;;;;;;;;;18.00;16.00;;;;;24.66;54.68;100469.03;5019646;28;45338;-64
2023/06/20 09:22:50;;;;;;;;;17.00;14.25;;;;;24.71;54.96;100462.47;5019878;28;45526;-64
2023/06/20 09:25:21;;;;;;;;;19.50;16.25;;;;;24.74;54.62;100462.22;5019548;28;45175;-64
2023/06/20 09:27:46;;;;;;;;;16.75;14.50;;;;;24.77;54.62;100464.69;5018680;28;45336;-64
2023/06/20 09:30:12;;;;;;;;;15.00;14.50;;;;;24.75;54.34;100445.13;5019854;28;45797;-64
2023/06/20 09:32:40;;;;;;;;;16.25;13.75;;;;;24.80;54.37;100445.63;5018594;28;45795;-64
2023/06/20 09:35:08;;;;;;;;;13.75;12.50;;;;;24.82;54.81;100443.69;5019688;28;46167;-64
2023/06/20 09:37:36;;;;;;;;;16.00;15.00;;;;;24.84;54.77;100439.03;5019394;28;45300;-64
2023/06/20 09:40:10;;;;;;;;;20.00;15.50;;;;;24.87;54.27;100441.47;5019611;28;45339;-64
2023/06/20 09:42:37;;;;;;;;;15.00;13.50;;;;;24.88;54.23;100439.63;5023268;28;45586;-64
2023/06/20 09:45:03;;;;;;;;;14.00;13.25;;;;;24.90;54.30;100440.38;5022887;28;45523;-64
2023/06/20 09:47:29;;;;;;;;;15.75;14.25;;;;;24.92;54.70;100441.13;5038403;28;45301;-64
2023/06/20 09:49:58;;;;;;;;;18.00;17.25;;;;;24.95;54.25;100443.56;5023194;28;45307;-65
2023/06/20 09:52:32;;;;;;;;;15.75;15.75;;;;;24.97;54.45;100447.81;5022910;28;45450;-65
2023/06/20 09:55:02;;;;;;;;;18.25;18.25;;;;;24.92;54.52;100435.75;5022675;28;46153;-64
2023/06/20 09:57:47;;;;;;;;;15.25;14.50;;;;;25.02;54.64;100444.78;5038075;28;45599;-64
2023/06/20 10:00:14;;;;;;;;;17.25;15.75;;;;;25.05;54.75;100452.59;5038456;28;45435;-64
2023/06/20 10:02:45;;;;;;;;;19.00;17.75;;;;;25.05;54.49;100455.28;5022715;28;45444;-65
2023/06/20 10:05:12;;;;;;;;;17.75;16.25;;;;;25.11;54.73;100473.59;5022672;28;46165;-64
2023/06/20 10:07:39;;;;;;;;;18.50;16.50;;;;;25.11;54.87;100470.91;5022426;28;45407;-64
2023/06/20 10:10:05;;;;;;;;;16.75;15.75;;;;;25.15;54.42;100482.28;5022879;28;45396;-64
2023/06/20 10:12:31;;;;;;;;;16.50;13.75;;;;;25.19;54.82;100493.66;5022662;28;45543;-64
2023/06/20 10:14:57;;;;;;;;;15.00;15.00;;;;;25.19;54.36;100485.56;5037816;28;47382;-64
2023/06/20 10:17:36;;;;;;;;;14.50;13.50;;;;;25.23;54.50;100504.03;5036843;28;45457;-64
2023/06/20 10:20:08;;;;;;;;;16.25;13.75;;;;;25.25;54.74;100504.75;5022009;28;45236;-64
2023/06/20 10:22:43;;;;;;;;;18.50;16.75;;;;;25.28;54.47;100514.41;5021397;28;45388;-65
2023/06/20 10:25:11;;;;;;;;;14.00;12.50;;;;;25.32;54.03;100521.28;5021172;28;46810;-65
2023/06/20 10:27:41;;;;;;;;;15.00;14.75;;;;;25.35;54.48;100515.63;5021591;28;45315;-65
2023/06/20 10:30:07;;;;;;;;;15.00;13.25;;;;;25.40;54.27;100509.94;5021497;28;45428;-65
2023/06/20 10:32:33;;;;;;;;;14.50;14.50;;;;;25.46;54.11;100501.38;5036783;28;45237;-65
2023/06/20 10:35:09;;;;;;;;;15.75;14.50;;;;;25.54;54.08;100508.81;5021012;28;46143;-65
2023/06/20 10:37:38;;;;;;;;;20.50;14.25;;;;;25.58;54.11;100500.34;5021140;28;45250;-65
2023/06/20 10:40:10;;;;;;;;;15.00;12.50;;;;;25.75;54.70;100515.13;5021383;28;45348;-65
2023/06/20 10:42:42;;;;;;;;;12.75;12.25;;;;;25.90;54.29;100515.69;5021318;28;45364;-65
2023/06/20 10:45:20;;;;;;;;;13.75;10.75;;;;;26.08;54.00;100510.63;5020981;28;46215;-64
2023/06/20 10:47:46;;;;;;;;;12.25;11.75;;;;;26.30;53.89;100519.59;5019851;28;46066;-65
2023/06/20 10:50:15;;;;;;;;;11.00;10.50;;;;;26.49;53.92;100510.84;5021079;28;45356;-65
2023/06/20 10:52:41;;;;;;;;;13.00;12.25;;;;;26.73;53.93;100513.28;5020683;28;45220;-65
2023/06/20 10:55:16;;;;;;;;;13.00;11.50;;;;;26.96;53.60;100520.38;5036153;28;45910;-65
2023/06/20 10:57:49;;;;;;;;;13.00;11.25;;;;;27.22;53.12;100520.75;5020942;28;45273;-65
2023/06/20 11:00:19;;;;;;;;;13.75;12.00;;;;;27.46;53.41;100525.00;5021206;28;45344;-65
2023/06/20 11:02:48;;;;;;;;;10.25;10.25;;;;;27.70;53.04;100509.31;5020655;28;45404;-65
2023/06/20 11:05:14;;;;;;;;;13.00;11.75;;;;;27.96;53.07;100516.91;5020606;28;45502;-65
2023/06/20 11:07:55;;;;;;;;;9.00;9.00;;;;;28.22;52.76;100509.09;5020563;28;45425;-65
2023/06/20 11:10:21;;;;;;;;;11.75;10.75;;;;;28.46;52.55;100515.06;5020792;28;45395;-65
2023/06/20 11:12:47;;;;;;;;;11.50;10.50;;;;;28.68;52.26;100516.66;5020847;28;45388;-65
2023/06/20 11:15:20;;;;;;;;;10.50;9.25;;;;;28.92;51.77;100520.69;4980635;28;1140517;-65
2023/06/20 11:17:46;;;;;;;;;9.50;9.50;;;;;29.12;51.59;100522.34;5021735;28;45365;-65
2023/06/20 11:20:11;;;;;;;;;11.00;10.00;;;;;29.29;51.47;100514.47;5021384;28;45309;-65